sensor_id;sensor_type;location;lat;lon;timestamp;P1;durP1;ratioP1;P2;durP2;ratioP2
58972;SDS011;44750;52.040;7.472;2023-10-08T00:00:30;10.32;;;4.18;;
58972;SDS011;44750;52.040;7.472;2023-10-08T00:05:35;6.93;;;3.42;;
58972;SDS011;44750;52.040;7.472;2023-10-08T00:10:42;6.03;;;2.78;;
58972;SDS011;44750;52.040;7.472;2023-10-08T00:15:43;7.90;;;3.17;;
58972;SDS011;44750;52.040;7.472;2023-10-08T00:20:44;6.53;;;3.65;;
58972;SDS011;44750;52.040;7.472;2023-10-08T00:25:48;8.85;;;3.95;;
58972;SDS011;44750;52.040;7.472;2023-10-08T00:31:06;6.97;;;3.30;;
58972;SDS011;44750;52.040;7.472;2023-10-08T00:36:06;7.47;;;3.63;;
58972;SDS011;44750;52.040;7.472;2023-10-08T00:41:07;6.97;;;3.33;;
58972;SDS011;44750;52.040;7.472;2023-10-08T00:46:07;6.40;;;3.30;;
58972;SDS011;44750;52.040;7.472;2023-10-08T00:51:08;8.50;;;4.03;;
58972;SDS011;44750;52.040;7.472;2023-10-08T00:56:08;6.40;;;3.78;;
58972;SDS011;44750;52.040;7.472;2023-10-08T01:01:09;9.85;;;4.28;;
58972;SDS011;44750;52.040;7.472;2023-10-08T01:06:18;7.37;;;4.13;;
58972;SDS011;44750;52.040;7.472;2023-10-08T01:11:22;8.73;;;4.15;;
58972;SDS011;44750;52.040;7.472;2023-10-08T01:16:23;8.27;;;3.83;;
58972;SDS011;44750;52.040;7.472;2023-10-08T01:21:33;8.23;;;3.38;;
58972;SDS011;44750;52.040;7.472;2023-10-08T01:26:34;11.00;;;4.45;;
58972;SDS011;44750;52.040;7.472;2023-10-08T01:31:34;8.20;;;3.77;;
58972;SDS011;44750;52.040;7.472;2023-10-08T01:36:42;6.38;;;3.88;;
58972;SDS011;44750;52.040;7.472;2023-10-08T01:41:46;7.25;;;4.30;;
58972;SDS011;44750;52.040;7.472;2023-10-08T01:46:46;8.73;;;4.70;;
58972;SDS011;44750;52.040;7.472;2023-10-08T01:51:46;11.60;;;5.00;;
58972;SDS011;44750;52.040;7.472;2023-10-08T01:56:47;11.27;;;4.90;;
58972;SDS011;44750;52.040;7.472;2023-10-08T02:01:47;9.00;;;5.10;;
58972;SDS011;44750;52.040;7.472;2023-10-08T02:06:47;17.45;;;5.65;;
58972;SDS011;44750;52.040;7.472;2023-10-08T02:11:48;11.40;;;5.35;;
58972;SDS011;44750;52.040;7.472;2023-10-08T02:16:49;8.35;;;4.75;;
58972;SDS011;44750;52.040;7.472;2023-10-08T02:21:53;5.85;;;3.63;;
58972;SDS011;44750;52.040;7.472;2023-10-08T02:26:56;1.08;;;0.98;;
58972;SDS011;44750;52.040;7.472;2023-10-08T02:31:57;0.95;;;0.77;;
58972;SDS011;44750;52.040;7.472;2023-10-08T02:36:58;0.50;;;0.40;;
58972;SDS011;44750;52.040;7.472;2023-10-08T02:41:58;0.93;;;0.70;;
58972;SDS011;44750;52.040;7.472;2023-10-08T02:47:00;1.13;;;0.63;;
58972;SDS011;44750;52.040;7.472;2023-10-08T02:52:00;0.73;;;0.65;;
58972;SDS011;44750;52.040;7.472;2023-10-08T02:57:01;1.08;;;0.70;;
58972;SDS011;44750;52.040;7.472;2023-10-08T03:02:01;0.45;;;0.45;;
58972;SDS011;44750;52.040;7.472;2023-10-08T03:07:02;0.40;;;0.40;;
58972;SDS011;44750;52.040;7.472;2023-10-08T03:12:03;0.50;;;0.50;;
58972;SDS011;44750;52.040;7.472;2023-10-08T03:17:03;1.50;;;0.45;;
58972;SDS011;44750;52.040;7.472;2023-10-08T03:22:03;0.65;;;0.50;;
58972;SDS011;44750;52.040;7.472;2023-10-08T03:27:04;1.42;;;0.90;;
58972;SDS011;44750;52.040;7.472;2023-10-08T03:32:06;0.52;;;0.45;;
58972;SDS011;44750;52.040;7.472;2023-10-08T03:37:07;0.60;;;0.50;;
58972;SDS011;44750;52.040;7.472;2023-10-08T03:42:10;0.82;;;0.57;;
58972;SDS011;44750;52.040;7.472;2023-10-08T03:47:11;0.73;;;0.40;;
58972;SDS011;44750;52.040;7.472;2023-10-08T03:52:12;0.30;;;0.30;;
58972;SDS011;44750;52.040;7.472;2023-10-08T03:57:13;0.40;;;0.30;;
58972;SDS011;44750;52.040;7.472;2023-10-08T04:02:16;0.17;;;0.13;;
58972;SDS011;44750;52.040;7.472;2023-10-08T04:07:25;0.28;;;0.28;;
58972;SDS011;44750;52.040;7.472;2023-10-08T04:12:26;0.90;;;0.30;;
58972;SDS011;44750;52.040;7.472;2023-10-08T04:17:29;1.75;;;0.35;;
58972;SDS011;44750;52.040;7.472;2023-10-08T04:22:30;0.30;;;0.30;;
58972;SDS011;44750;52.040;7.472;2023-10-08T04:27:30;0.75;;;0.30;;
58972;SDS011;44750;52.040;7.472;2023-10-08T04:32:33;0.25;;;0.25;;
58972;SDS011;44750;52.040;7.472;2023-10-08T04:37:33;0.98;;;0.30;;
58972;SDS011;44750;52.040;7.472;2023-10-08T04:42:34;0.47;;;0.40;;
58972;SDS011;44750;52.040;7.472;2023-10-08T04:47:37;0.60;;;0.60;;
58972;SDS011;44750;52.040;7.472;2023-10-08T04:52:52;1.73;;;0.90;;
58972;SDS011;44750;52.040;7.472;2023-10-08T04:57:52;1.02;;;0.80;;
58972;SDS011;44750;52.040;7.472;2023-10-08T05:02:52;1.23;;;0.70;;
58972;SDS011;44750;52.040;7.472;2023-10-08T05:07:53;0.60;;;0.60;;
58972;SDS011;44750;52.040;7.472;2023-10-08T05:12:53;0.70;;;0.70;;
58972;SDS011;44750;52.040;7.472;2023-10-08T05:17:54;1.02;;;0.70;;
58972;SDS011;44750;52.040;7.472;2023-10-08T05:22:56;1.23;;;0.88;;
58972;SDS011;44750;52.040;7.472;2023-10-08T05:27:56;4.75;;;0.77;;
58972;SDS011;44750;52.040;7.472;2023-10-08T05:32:57;1.95;;;0.90;;
58972;SDS011;44750;52.040;7.472;2023-10-08T05:37:59;1.15;;;1.05;;
58972;SDS011;44750;52.040;7.472;2023-10-08T05:42:59;1.80;;;0.85;;
58972;SDS011;44750;52.040;7.472;2023-10-08T05:47:59;0.80;;;0.80;;
58972;SDS011;44750;52.040;7.472;2023-10-08T05:53:01;0.90;;;0.90;;
58972;SDS011;44750;52.040;7.472;2023-10-08T05:58:04;1.38;;;1.15;;
58972;SDS011;44750;52.040;7.472;2023-10-08T06:08:06;1.13;;;1.02;;
58972;SDS011;44750;52.040;7.472;2023-10-08T06:13:14;1.60;;;1.33;;
58972;SDS011;44750;52.040;7.472;2023-10-08T06:18:18;2.40;;;1.50;;
58972;SDS011;44750;52.040;7.472;2023-10-08T06:23:21;2.00;;;1.70;;
58972;SDS011;44750;52.040;7.472;2023-10-08T06:28:22;1.95;;;1.73;;
58972;SDS011;44750;52.040;7.472;2023-10-08T06:33:24;1.95;;;1.73;;
58972;SDS011;44750;52.040;7.472;2023-10-08T06:38:30;1.98;;;1.77;;
58972;SDS011;44750;52.040;7.472;2023-10-08T06:43:39;2.28;;;2.08;;
58972;SDS011;44750;52.040;7.472;2023-10-08T06:48:48;2.28;;;2.08;;
58972;SDS011;44750;52.040;7.472;2023-10-08T06:53:49;3.40;;;2.25;;
58972;SDS011;44750;52.040;7.472;2023-10-08T06:58:49;3.47;;;2.65;;
58972;SDS011;44750;52.040;7.472;2023-10-08T07:03:53;2.50;;;2.17;;
58972;SDS011;44750;52.040;7.472;2023-10-08T07:08:58;2.80;;;2.28;;
58972;SDS011;44750;52.040;7.472;2023-10-08T07:14:03;1.73;;;1.48;;
58972;SDS011;44750;52.040;7.472;2023-10-08T07:19:18;2.53;;;2.00;;
58972;SDS011;44750;52.040;7.472;2023-10-08T07:24:19;4.68;;;2.00;;
58972;SDS011;44750;52.040;7.472;2023-10-08T07:29:22;2.25;;;1.63;;
58972;SDS011;44750;52.040;7.472;2023-10-08T07:34:23;1.73;;;1.50;;
58972;SDS011;44750;52.040;7.472;2023-10-08T07:39:24;2.33;;;1.80;;
58972;SDS011;44750;52.040;7.472;2023-10-08T07:44:27;3.88;;;1.70;;
58972;SDS011;44750;52.040;7.472;2023-10-08T07:49:28;3.47;;;2.05;;
58972;SDS011;44750;52.040;7.472;2023-10-08T07:54:33;4.00;;;2.38;;
58972;SDS011;44750;52.040;7.472;2023-10-08T07:59:40;3.17;;;2.30;;
58972;SDS011;44750;52.040;7.472;2023-10-08T08:04:55;2.50;;;2.22;;
58972;SDS011;44750;52.040;7.472;2023-10-08T08:10:00;2.10;;;1.90;;
58972;SDS011;44750;52.040;7.472;2023-10-08T08:15:01;3.67;;;2.00;;
58972;SDS011;44750;52.040;7.472;2023-10-08T08:20:05;4.18;;;1.95;;
58972;SDS011;44750;52.040;7.472;2023-10-08T08:25:06;2.45;;;1.90;;
58972;SDS011;44750;52.040;7.472;2023-10-08T08:30:07;2.08;;;1.88;;
58972;SDS011;44750;52.040;7.472;2023-10-08T08:35:08;3.40;;;1.85;;
58972;SDS011;44750;52.040;7.472;2023-10-08T08:40:26;6.07;;;2.30;;
58972;SDS011;44750;52.040;7.472;2023-10-08T08:45:46;2.13;;;1.75;;
58972;SDS011;44750;52.040;7.472;2023-10-08T08:50:47;2.92;;;1.88;;
58972;SDS011;44750;52.040;7.472;2023-10-08T08:56:11;2.92;;;2.15;;
58972;SDS011;44750;52.040;7.472;2023-10-08T09:01:12;2.72;;;1.70;;
58972;SDS011;44750;52.040;7.472;2023-10-08T09:06:19;3.58;;;1.92;;
58972;SDS011;44750;52.040;7.472;2023-10-08T09:11:19;1.90;;;1.70;;
58972;SDS011;44750;52.040;7.472;2023-10-08T09:16:23;1.60;;;1.40;;
58972;SDS011;44750;52.040;7.472;2023-10-08T09:21:30;1.67;;;1.08;;
58972;SDS011;44750;52.040;7.472;2023-10-08T09:31:39;2.30;;;1.10;;
58972;SDS011;44750;52.040;7.472;2023-10-08T09:36:39;1.90;;;0.83;;
58972;SDS011;44750;52.040;7.472;2023-10-08T09:41:39;4.67;;;0.90;;
58972;SDS011;44750;52.040;7.472;2023-10-08T09:46:41;2.33;;;0.90;;
58972;SDS011;44750;52.040;7.472;2023-10-08T09:51:50;2.00;;;1.00;;
58972;SDS011;44750;52.040;7.472;2023-10-08T09:56:51;2.10;;;1.02;;
58972;SDS011;44750;52.040;7.472;2023-10-08T10:01:56;2.53;;;0.90;;
58972;SDS011;44750;52.040;7.472;2023-10-08T10:06:57;1.23;;;0.90;;
58972;SDS011;44750;52.040;7.472;2023-10-08T10:12:07;1.63;;;0.73;;
58972;SDS011;44750;52.040;7.472;2023-10-08T10:17:14;7.38;;;1.25;;
58972;SDS011;44750;52.040;7.472;2023-10-08T10:22:31;2.40;;;1.02;;
58972;SDS011;44750;52.040;7.472;2023-10-08T10:27:33;2.28;;;1.05;;
58972;SDS011;44750;52.040;7.472;2023-10-08T10:32:34;5.23;;;1.10;;
58972;SDS011;44750;52.040;7.472;2023-10-08T10:37:37;3.30;;;1.58;;
58972;SDS011;44750;52.040;7.472;2023-10-08T10:42:47;1.48;;;0.82;;
58972;SDS011;44750;52.040;7.472;2023-10-08T10:47:52;2.35;;;1.00;;
58972;SDS011;44750;52.040;7.472;2023-10-08T10:52:53;2.70;;;1.17;;
58972;SDS011;44750;52.040;7.472;2023-10-08T10:57:54;2.70;;;1.13;;
58972;SDS011;44750;52.040;7.472;2023-10-08T11:02:56;3.90;;;1.48;;
58972;SDS011;44750;52.040;7.472;2023-10-08T11:08:02;3.30;;;0.90;;
58972;SDS011;44750;52.040;7.472;2023-10-08T11:13:05;3.35;;;1.42;;
58972;SDS011;44750;52.040;7.472;2023-10-08T11:18:13;2.42;;;0.90;;
58972;SDS011;44750;52.040;7.472;2023-10-08T11:23:33;2.17;;;1.05;;
58972;SDS011;44750;52.040;7.472;2023-10-08T11:28:39;1.83;;;0.75;;
58972;SDS011;44750;52.040;7.472;2023-10-08T11:33:46;1.80;;;1.02;;
58972;SDS011;44750;52.040;7.472;2023-10-08T11:38:47;4.85;;;1.20;;
58972;SDS011;44750;52.040;7.472;2023-10-08T11:43:49;9.32;;;1.52;;
58972;SDS011;44750;52.040;7.472;2023-10-08T11:49:08;1.50;;;0.90;;
58972;SDS011;44750;52.040;7.472;2023-10-08T11:54:08;1.23;;;0.90;;
58972;SDS011;44750;52.040;7.472;2023-10-08T11:59:18;1.65;;;1.10;;
58972;SDS011;44750;52.040;7.472;2023-10-08T12:04:22;2.17;;;1.35;;
58972;SDS011;44750;52.040;7.472;2023-10-08T12:09:25;2.78;;;0.93;;
58972;SDS011;44750;52.040;7.472;2023-10-08T12:14:26;12.95;;;1.33;;
58972;SDS011;44750;52.040;7.472;2023-10-08T12:24:33;1.58;;;0.82;;
58972;SDS011;44750;52.040;7.472;2023-10-08T12:29:36;2.15;;;1.20;;
58972;SDS011;44750;52.040;7.472;2023-10-08T12:34:40;2.97;;;1.65;;
58972;SDS011;44750;52.040;7.472;2023-10-08T12:39:53;2.27;;;1.27;;
58972;SDS011;44750;52.040;7.472;2023-10-08T12:45:02;5.03;;;1.98;;
58972;SDS011;44750;52.040;7.472;2023-10-08T12:50:06;3.40;;;1.50;;
58972;SDS011;44750;52.040;7.472;2023-10-08T12:55:07;3.08;;;1.65;;
58972;SDS011;44750;52.040;7.472;2023-10-08T13:00:07;3.53;;;1.23;;
58972;SDS011;44750;52.040;7.472;2023-10-08T13:05:08;2.25;;;1.35;;
58972;SDS011;44750;52.040;7.472;2023-10-08T13:10:12;2.03;;;1.40;;
58972;SDS011;44750;52.040;7.472;2023-10-08T13:15:14;2.70;;;1.55;;
58972;SDS011;44750;52.040;7.472;2023-10-08T13:20:14;2.33;;;1.40;;
58972;SDS011;44750;52.040;7.472;2023-10-08T13:25:15;2.03;;;1.13;;
58972;SDS011;44750;52.040;7.472;2023-10-08T13:30:18;2.70;;;1.00;;
58972;SDS011;44750;52.040;7.472;2023-10-08T13:35:22;3.33;;;1.42;;
58972;SDS011;44750;52.040;7.472;2023-10-08T13:40:26;2.08;;;1.25;;
58972;SDS011;44750;52.040;7.472;2023-10-08T13:45:27;2.78;;;1.23;;
58972;SDS011;44750;52.040;7.472;2023-10-08T13:50:31;1.53;;;1.00;;
58972;SDS011;44750;52.040;7.472;2023-10-08T13:55:32;3.72;;;0.93;;
58972;SDS011;44750;52.040;7.472;2023-10-08T14:00:33;2.60;;;1.33;;
58972;SDS011;44750;52.040;7.472;2023-10-08T14:05:33;1.50;;;1.13;;
58972;SDS011;44750;52.040;7.472;2023-10-08T14:10:34;10.07;;;7.90;;
58972;SDS011;44750;52.040;7.472;2023-10-08T14:15:34;2.55;;;1.98;;
58972;SDS011;44750;52.040;7.472;2023-10-08T14:20:34;1.37;;;0.90;;
58972;SDS011;44750;52.040;7.472;2023-10-08T14:25:34;1.15;;;0.65;;
58972;SDS011;44750;52.040;7.472;2023-10-08T14:30:36;2.38;;;1.35;;
58972;SDS011;44750;52.040;7.472;2023-10-08T14:35:36;1.40;;;0.80;;
58972;SDS011;44750;52.040;7.472;2023-10-08T14:40:36;1.73;;;0.70;;
58972;SDS011;44750;52.040;7.472;2023-10-08T14:45:37;2.85;;;1.00;;
58972;SDS011;44750;52.040;7.472;2023-10-08T14:50:37;1.13;;;0.70;;
58972;SDS011;44750;52.040;7.472;2023-10-08T14:55:37;1.17;;;0.95;;
58972;SDS011;44750;52.040;7.472;2023-10-08T15:00:38;1.38;;;0.70;;
58972;SDS011;44750;52.040;7.472;2023-10-08T15:05:48;2.33;;;0.63;;
58972;SDS011;44750;52.040;7.472;2023-10-08T15:10:51;1.85;;;0.77;;
58972;SDS011;44750;52.040;7.472;2023-10-08T15:15:51;0.70;;;0.50;;
58972;SDS011;44750;52.040;7.472;2023-10-08T15:20:52;0.65;;;0.60;;
58972;SDS011;44750;52.040;7.472;2023-10-08T15:25:58;1.60;;;0.90;;
58972;SDS011;44750;52.040;7.472;2023-10-08T15:31:10;2.97;;;0.68;;
58972;SDS011;44750;52.040;7.472;2023-10-08T15:36:19;0.95;;;0.70;;
58972;SDS011;44750;52.040;7.472;2023-10-08T15:41:20;3.70;;;0.85;;
58972;SDS011;44750;52.040;7.472;2023-10-08T15:46:20;2.17;;;0.80;;
58972;SDS011;44750;52.040;7.472;2023-10-08T15:51:20;1.75;;;0.93;;
58972;SDS011;44750;52.040;7.472;2023-10-08T15:56:20;0.80;;;0.70;;
58972;SDS011;44750;52.040;7.472;2023-10-08T16:01:21;0.75;;;0.60;;
58972;SDS011;44750;52.040;7.472;2023-10-08T16:06:22;3.25;;;0.93;;
58972;SDS011;44750;52.040;7.472;2023-10-08T16:11:22;1.33;;;0.70;;
58972;SDS011;44750;52.040;7.472;2023-10-08T16:16:22;1.05;;;0.65;;
58972;SDS011;44750;52.040;7.472;2023-10-08T16:21:23;1.23;;;0.80;;
58972;SDS011;44750;52.040;7.472;2023-10-08T16:26:23;1.80;;;0.88;;
58972;SDS011;44750;52.040;7.472;2023-10-08T16:31:24;1.27;;;0.93;;
58972;SDS011;44750;52.040;7.472;2023-10-08T16:36:24;0.77;;;0.60;;
58972;SDS011;44750;52.040;7.472;2023-10-08T16:41:25;1.60;;;1.02;;
58972;SDS011;44750;52.040;7.472;2023-10-08T16:46:25;1.70;;;0.97;;
58972;SDS011;44750;52.040;7.472;2023-10-08T16:51:25;2.08;;;1.00;;
58972;SDS011;44750;52.040;7.472;2023-10-08T16:56:25;0.80;;;0.60;;
58972;SDS011;44750;52.040;7.472;2023-10-08T17:01:26;1.13;;;0.68;;
58972;SDS011;44750;52.040;7.472;2023-10-08T17:06:26;1.90;;;0.90;;
58972;SDS011;44750;52.040;7.472;2023-10-08T17:11:26;1.90;;;0.70;;
58972;SDS011;44750;52.040;7.472;2023-10-08T17:16:26;0.93;;;0.70;;
58972;SDS011;44750;52.040;7.472;2023-10-08T17:21:27;1.77;;;0.90;;
58972;SDS011;44750;52.040;7.472;2023-10-08T17:26:27;1.20;;;0.82;;
58972;SDS011;44750;52.040;7.472;2023-10-08T17:31:27;2.70;;;1.10;;
58972;SDS011;44750;52.040;7.472;2023-10-08T17:36:28;2.20;;;1.10;;
58972;SDS011;44750;52.040;7.472;2023-10-08T17:41:29;1.20;;;0.93;;
58972;SDS011;44750;52.040;7.472;2023-10-08T17:46:29;3.80;;;1.00;;
58972;SDS011;44750;52.040;7.472;2023-10-08T17:51:29;1.83;;;1.13;;
58972;SDS011;44750;52.040;7.472;2023-10-08T17:56:30;9.20;;;2.25;;
58972;SDS011;44750;52.040;7.472;2023-10-08T18:01:31;2.90;;;1.42;;
58972;SDS011;44750;52.040;7.472;2023-10-08T18:06:33;1.33;;;0.82;;
58972;SDS011;44750;52.040;7.472;2023-10-08T18:11:33;2.35;;;1.17;;
58972;SDS011;44750;52.040;7.472;2023-10-08T18:16:34;1.63;;;0.85;;
58972;SDS011;44750;52.040;7.472;2023-10-08T18:21:35;1.25;;;0.65;;
58972;SDS011;44750;52.040;7.472;2023-10-08T18:26:35;8.67;;;1.43;;
58972;SDS011;44750;52.040;7.472;2023-10-08T18:31:35;2.30;;;1.33;;
58972;SDS011;44750;52.040;7.472;2023-10-08T18:36:35;3.80;;;0.98;;
58972;SDS011;44750;52.040;7.472;2023-10-08T18:41:36;3.00;;;0.98;;
58972;SDS011;44750;52.040;7.472;2023-10-08T18:46:36;1.45;;;0.90;;
58972;SDS011;44750;52.040;7.472;2023-10-08T18:51:37;2.70;;;2.00;;
58972;SDS011;44750;52.040;7.472;2023-10-08T18:56:44;4.75;;;1.73;;
58972;SDS011;44750;52.040;7.472;2023-10-08T19:01:44;1.70;;;0.73;;
58972;SDS011;44750;52.040;7.472;2023-10-08T19:06:44;2.28;;;1.20;;
58972;SDS011;44750;52.040;7.472;2023-10-08T19:11:44;1.73;;;1.02;;
58972;SDS011;44750;52.040;7.472;2023-10-08T19:16:46;1.55;;;0.90;;
58972;SDS011;44750;52.040;7.472;2023-10-08T19:21:46;1.25;;;0.90;;
58972;SDS011;44750;52.040;7.472;2023-10-08T19:26:46;1.58;;;1.13;;
58972;SDS011;44750;52.040;7.472;2023-10-08T19:31:46;3.97;;;1.88;;
58972;SDS011;44750;52.040;7.472;2023-10-08T19:36:47;1.10;;;0.80;;
58972;SDS011;44750;52.040;7.472;2023-10-08T19:41:47;2.35;;;1.30;;
58972;SDS011;44750;52.040;7.472;2023-10-08T19:46:47;2.45;;;1.42;;
58972;SDS011;44750;52.040;7.472;2023-10-08T19:51:48;3.03;;;1.30;;
58972;SDS011;44750;52.040;7.472;2023-10-08T19:56:48;1.80;;;1.10;;
58972;SDS011;44750;52.040;7.472;2023-10-08T20:01:48;1.65;;;0.82;;
58972;SDS011;44750;52.040;7.472;2023-10-08T20:06:48;5.13;;;2.17;;
58972;SDS011;44750;52.040;7.472;2023-10-08T20:11:49;4.95;;;2.33;;
58972;SDS011;44750;52.040;7.472;2023-10-08T20:16:49;3.10;;;1.38;;
58972;SDS011;44750;52.040;7.472;2023-10-08T20:21:49;2.08;;;1.73;;
58972;SDS011;44750;52.040;7.472;2023-10-08T20:26:49;2.35;;;1.20;;
58972;SDS011;44750;52.040;7.472;2023-10-08T20:31:49;2.78;;;1.20;;
58972;SDS011;44750;52.040;7.472;2023-10-08T20:36:50;6.15;;;1.98;;
58972;SDS011;44750;52.040;7.472;2023-10-08T20:41:50;4.82;;;3.50;;
58972;SDS011;44750;52.040;7.472;2023-10-08T20:46:50;3.75;;;2.20;;
58972;SDS011;44750;52.040;7.472;2023-10-08T20:51:50;4.43;;;3.58;;
58972;SDS011;44750;52.040;7.472;2023-10-08T20:56:51;2.80;;;1.80;;
58972;SDS011;44750;52.040;7.472;2023-10-08T21:01:51;2.42;;;1.55;;
58972;SDS011;44750;52.040;7.472;2023-10-08T21:06:51;3.10;;;1.60;;
58972;SDS011;44750;52.040;7.472;2023-10-08T21:11:52;2.03;;;1.20;;
58972;SDS011;44750;52.040;7.472;2023-10-08T21:16:52;2.08;;;1.48;;
58972;SDS011;44750;52.040;7.472;2023-10-08T21:21:52;1.33;;;1.10;;
58972;SDS011;44750;52.040;7.472;2023-10-08T21:26:54;2.83;;;1.77;;
58972;SDS011;44750;52.040;7.472;2023-10-08T21:31:54;1.42;;;1.33;;
58972;SDS011;44750;52.040;7.472;2023-10-08T21:36:54;1.80;;;1.20;;
58972;SDS011;44750;52.040;7.472;2023-10-08T21:41:54;1.48;;;1.00;;
58972;SDS011;44750;52.040;7.472;2023-10-08T21:46:55;1.13;;;1.02;;
58972;SDS011;44750;52.040;7.472;2023-10-08T21:51:55;1.90;;;1.10;;
58972;SDS011;44750;52.040;7.472;2023-10-08T21:56:55;3.05;;;1.30;;
58972;SDS011;44750;52.040;7.472;2023-10-08T22:01:55;2.55;;;1.33;;
58972;SDS011;44750;52.040;7.472;2023-10-08T22:06:55;2.15;;;0.82;;
58972;SDS011;44750;52.040;7.472;2023-10-08T22:11:56;1.55;;;0.90;;
58972;SDS011;44750;52.040;7.472;2023-10-08T22:16:57;3.42;;;1.30;;
58972;SDS011;44750;52.040;7.472;2023-10-08T22:21:57;1.00;;;0.85;;
58972;SDS011;44750;52.040;7.472;2023-10-08T22:26:58;2.53;;;1.20;;
58972;SDS011;44750;52.040;7.472;2023-10-08T22:31:58;1.63;;;1.48;;
58972;SDS011;44750;52.040;7.472;2023-10-08T22:36:58;1.40;;;0.90;;
58972;SDS011;44750;52.040;7.472;2023-10-08T22:41:59;2.35;;;1.45;;
58972;SDS011;44750;52.040;7.472;2023-10-08T22:46:59;1.98;;;1.50;;
58972;SDS011;44750;52.040;7.472;2023-10-08T22:52:00;3.40;;;1.45;;
58972;SDS011;44750;52.040;7.472;2023-10-08T22:57:01;3.95;;;1.60;;
58972;SDS011;44750;52.040;7.472;2023-10-08T23:02:01;1.33;;;1.23;;
58972;SDS011;44750;52.040;7.472;2023-10-08T23:07:01;3.72;;;2.05;;
58972;SDS011;44750;52.040;7.472;2023-10-08T23:12:01;2.22;;;1.85;;
58972;SDS011;44750;52.040;7.472;2023-10-08T23:17:01;3.63;;;1.80;;
58972;SDS011;44750;52.040;7.472;2023-10-08T23:22:02;4.22;;;1.98;;
58972;SDS011;44750;52.040;7.472;2023-10-08T23:27:02;2.15;;;1.83;;
58972;SDS011;44750;52.040;7.472;2023-10-08T23:32:02;2.63;;;2.17;;
58972;SDS011;44750;52.040;7.472;2023-10-08T23:37:03;3.83;;;2.78;;
58972;SDS011;44750;52.040;7.472;2023-10-08T23:42:04;2.80;;;2.17;;
58972;SDS011;44750;52.040;7.472;2023-10-08T23:47:04;4.75;;;2.90;;
58972;SDS011;44750;52.040;7.472;2023-10-08T23:52:04;3.55;;;2.47;;
58972;SDS011;44750;52.040;7.472;2023-10-08T23:57:05;6.22;;;3.78;;
